Terminal Aerodrome Forecast
Issued by NWS

Home | Current Version | Previous Version | Text Only | Print | Product List | Glossary On
Versions: 1 2 3 4 5 6 7 8 9 10 11 12 13 14 15 16 17 18
845
FTUS42 KTBW 201136
TAFPGD
TAF
KPGD 201136Z 2012/2112 03004KT 1SM BR SCT005
      TEMPO 2012/2013 1/2SM FG BKN003
     FM201400 07006KT P6SM SCT015
     FM202200 10006KT P6SM FEW050
     FM210600 07003KT 6SM BR FEW020 SCT250=

USA.gov is the U.S. government's official web portal to all federal, state and local government web resources and services.